createdAt,value
2023-03-06T00:00:39.617Z,14.27
2023-03-06T00:03:06.920Z,14.73
2023-03-06T00:05:33.891Z,14.05
2023-03-06T00:08:00.954Z,12.52
2023-03-06T00:10:30.627Z,12.65
2023-03-06T00:13:00.418Z,13.98
2023-03-06T00:15:27.984Z,13.38
2023-03-06T00:17:55.887Z,13.68
2023-03-06T00:20:23.580Z,14.73
2023-03-06T00:22:50.926Z,14.68
2023-03-06T00:25:20.376Z,13.65
2023-03-06T00:27:48.033Z,15.07
2023-03-06T00:30:18.284Z,14.40
2023-03-06T00:32:45.410Z,15.80
2023-03-06T00:35:12.879Z,14.43
2023-03-06T00:37:40.723Z,14.50
2023-03-06T00:40:10.981Z,15.35
2023-03-06T00:42:37.977Z,15.25
2023-03-06T00:45:05.468Z,15.45
2023-03-06T00:47:32.776Z,13.20
2023-03-06T00:49:59.794Z,14.75
2023-03-06T00:52:26.861Z,14.75
2023-03-06T00:54:53.863Z,14.40
2023-03-06T00:57:20.834Z,16.50
2023-03-06T00:59:47.840Z,15.18
2023-03-06T01:02:15.041Z,15.75
2023-03-06T01:04:42.159Z,13.45
2023-03-06T01:07:10.597Z,15.43
2023-03-06T01:09:37.656Z,16.77
2023-03-06T01:12:04.809Z,15.05
2023-03-06T01:14:32.145Z,16.58
2023-03-06T01:16:59.332Z,15.13
2023-03-06T01:19:26.309Z,15.80
2023-03-06T01:21:53.249Z,16.45
2023-03-06T01:24:20.284Z,15.02
2023-03-06T01:26:47.253Z,16.17
2023-03-06T01:29:14.496Z,16.02
2023-03-06T01:31:41.540Z,15.40
2023-03-06T01:34:08.510Z,15.80
2023-03-06T01:36:35.494Z,15.80
2023-03-06T01:39:03.832Z,17.27
2023-03-06T01:41:32.781Z,16.25
2023-03-06T01:43:59.903Z,15.57
2023-03-06T01:46:32.654Z,17.45
2023-03-06T01:49:11.355Z,14.10
2023-03-06T01:52:03.625Z,15.27
2023-03-06T01:54:44.403Z,14.65
2023-03-06T01:57:28.972Z,13.82
2023-03-06T02:00:09.836Z,14.52
2023-03-06T02:02:47.614Z,13.13
2023-03-06T02:05:14.623Z,15.20
2023-03-06T02:07:42.899Z,13.63
2023-03-06T02:10:14.881Z,13.18
2023-03-06T02:12:43.853Z,13.40
2023-03-06T02:15:17.150Z,15.23
2023-03-06T02:17:46.085Z,13.10
2023-03-06T02:20:41.041Z,14.30
2023-03-06T02:23:20.837Z,16.08
2023-03-06T02:25:51.103Z,15.77
2023-03-06T02:28:21.158Z,15.32
2023-03-06T02:30:50.397Z,16.77
2023-03-06T02:33:20.641Z,14.52
2023-03-06T02:36:00.850Z,15.88
2023-03-06T02:38:32.162Z,16.10
2023-03-06T02:41:01.733Z,14.65
2023-03-06T02:43:34.008Z,14.93
2023-03-06T02:46:02.485Z,15.68
2023-03-06T02:48:29.568Z,13.85
2023-03-06T02:50:56.645Z,14.32
2023-03-06T02:53:24.064Z,14.65
2023-03-06T02:55:51.728Z,14.50
2023-03-06T02:58:22.044Z,14.20
2023-03-06T03:00:50.036Z,14.77
2023-03-06T03:03:18.832Z,12.60
2023-03-06T03:10:04.573Z,13.00
2023-03-06T03:12:32.887Z,13.77
2023-03-06T03:14:59.997Z,14.10
2023-03-06T03:17:28.980Z,12.93
2023-03-06T03:19:56.012Z,14.05
2023-03-06T03:22:23.084Z,13.35
2023-03-06T03:24:50.444Z,14.10
2023-03-06T03:27:17.641Z,14.35
2023-03-06T03:29:44.693Z,14.20
2023-03-06T03:32:12.367Z,13.18
2023-03-06T03:37:09.333Z,13.50
2023-03-06T03:39:37.802Z,13.52
2023-03-06T03:42:05.013Z,13.48
2023-03-06T03:44:32.100Z,14.45
2023-03-06T03:46:59.552Z,15.05
2023-03-06T03:49:26.661Z,13.85
2023-03-06T03:51:54.504Z,15.43
2023-03-06T03:54:23.481Z,14.10
2023-03-06T03:56:53.090Z,16.08
2023-03-06T03:59:25.157Z,15.73
2023-03-06T04:02:06.302Z,14.57
2023-03-06T04:04:39.221Z,14.63
2023-03-06T04:07:07.017Z,14.73
2023-03-06T04:09:34.286Z,14.52
2023-03-06T04:12:01.329Z,13.65
2023-03-06T04:14:29.297Z,14.68
2023-03-06T04:16:56.813Z,13.98
2023-03-06T04:19:23.915Z,14.50
2023-03-06T04:21:51.020Z,13.93
2023-03-06T04:24:18.753Z,12.73
2023-03-06T04:26:46.516Z,13.40
2023-03-06T04:29:14.078Z,13.68
2023-03-06T04:31:41.136Z,14.32
2023-03-06T04:34:08.669Z,14.77
2023-03-06T04:36:36.648Z,14.18
2023-03-06T04:39:12.724Z,14.00
2023-03-06T04:41:40.775Z,15.18
2023-03-06T04:44:08.374Z,13.57
2023-03-06T04:46:36.113Z,14.30
2023-03-06T04:49:03.961Z,14.45
2023-03-06T04:51:31.379Z,14.15
2023-03-06T04:53:58.454Z,12.95
2023-03-06T04:56:25.495Z,13.75
2023-03-06T04:58:52.506Z,14.30
2023-03-06T05:01:19.618Z,14.13
2023-03-06T05:03:46.731Z,14.27
2023-03-06T05:06:13.686Z,13.80
2023-03-06T05:08:40.681Z,13.75
2023-03-06T05:11:07.716Z,14.55
2023-03-06T05:13:34.764Z,14.32
2023-03-06T05:16:03.208Z,13.40
2023-03-06T05:18:30.614Z,13.23
2023-03-06T05:20:59.995Z,13.40
2023-03-06T05:23:27.987Z,13.20
2023-03-06T05:25:54.995Z,13.82
2023-03-06T05:28:22.074Z,12.43
2023-03-06T05:30:49.236Z,12.75
2023-03-06T05:33:16.333Z,13.13
2023-03-06T05:35:47.961Z,13.43
2023-03-06T05:38:41.825Z,14.25
2023-03-06T05:41:14.310Z,13.75
2023-03-06T05:43:41.453Z,14.35
2023-03-06T05:46:09.284Z,12.82
2023-03-06T05:48:37.613Z,12.95
2023-03-06T05:51:05.866Z,12.80
2023-03-06T05:53:33.126Z,13.93
2023-03-06T05:56:06.279Z,13.00
2023-03-06T05:58:33.899Z,13.10
2023-03-06T06:01:07.567Z,11.93
2023-03-06T06:04:46.496Z,11.65
2023-03-06T06:07:17.194Z,12.75
2023-03-06T06:09:47.756Z,13.73
2023-03-06T06:12:14.815Z,12.88
2023-03-06T06:14:41.877Z,11.57
2023-03-06T06:17:09.071Z,13.15
2023-03-06T06:19:36.077Z,12.32
2023-03-06T06:22:03.960Z,12.93
2023-03-06T06:24:31.776Z,13.32
2023-03-06T06:27:01.470Z,12.65
2023-03-06T06:29:30.395Z,12.55
2023-03-06T06:31:57.791Z,10.60
2023-03-06T06:34:26.050Z,10.88
2023-03-06T06:36:54.499Z,12.45
2023-03-06T06:39:23.184Z,12.05
2023-03-06T06:42:09.695Z,8.77
2023-03-06T06:44:40.129Z,11.57
2023-03-06T06:47:24.845Z,11.30
2023-03-06T06:49:53.218Z,11.32
2023-03-06T06:52:20.482Z,12.38
2023-03-06T06:54:47.609Z,13.13
2023-03-06T06:57:15.628Z,11.68
2023-03-06T06:59:42.726Z,12.13
2023-03-06T07:02:15.987Z,12.77
2023-03-06T07:05:00.272Z,13.10
2023-03-06T07:07:29.377Z,12.57
2023-03-06T07:09:56.709Z,12.45
2023-03-06T07:12:23.748Z,12.73
2023-03-06T07:14:50.772Z,11.77
2023-03-06T07:17:17.760Z,12.13
2023-03-06T07:19:44.727Z,12.05
2023-03-06T07:22:12.263Z,12.23
2023-03-06T07:24:39.219Z,11.60
2023-03-06T07:27:06.403Z,11.02
2023-03-06T07:29:34.688Z,11.88
2023-03-06T07:32:01.922Z,11.52
2023-03-06T07:34:29.230Z,11.50
2023-03-06T07:36:56.272Z,10.98
2023-03-06T07:39:23.325Z,11.70
2023-03-06T07:41:50.360Z,11.27
2023-03-06T07:44:17.434Z,10.52
2023-03-06T07:46:44.506Z,12.05
2023-03-06T07:49:11.618Z,10.80
2023-03-06T07:51:38.613Z,11.35
2023-03-06T07:54:05.595Z,10.90
2023-03-06T07:56:35.153Z,11.70
2023-03-06T08:01:29.184Z,11.80
2023-03-06T08:03:56.829Z,11.50
2023-03-06T08:06:26.784Z,10.10
2023-03-06T08:08:55.616Z,9.88
2023-03-06T08:11:28.712Z,11.02
2023-03-06T08:13:57.108Z,10.45
2023-03-06T08:16:26.438Z,10.15
2023-03-06T08:18:57.840Z,10.32
2023-03-06T08:21:27.324Z,10.30
2023-03-06T08:26:24.572Z,10.38
2023-03-06T08:28:53.039Z,9.65
2023-03-06T08:31:32.945Z,6.93
2023-03-06T08:34:02.998Z,10.70
2023-03-06T08:36:30.231Z,6.82
2023-03-06T08:38:58.396Z,10.35
2023-03-06T08:41:25.874Z,9.73
2023-03-06T08:43:53.362Z,10.00
2023-03-06T08:46:23.586Z,11.35
2023-03-06T08:48:50.722Z,11.40
2023-03-06T08:51:18.696Z,9.07
2023-03-06T08:53:46.387Z,9.90
2023-03-06T08:56:25.345Z,10.23
2023-03-06T08:58:52.962Z,7.82
2023-03-06T09:01:29.110Z,10.38
2023-03-06T09:03:58.406Z,10.20
2023-03-06T09:06:27.470Z,9.13
2023-03-06T09:08:55.277Z,10.65
2023-03-06T09:11:24.452Z,10.40
2023-03-06T09:13:52.024Z,10.55
2023-03-06T09:16:19.706Z,10.05
2023-03-06T09:18:46.858Z,10.25
2023-03-06T09:21:13.925Z,10.90
2023-03-06T09:23:41.156Z,12.50
2023-03-06T09:26:08.813Z,10.48
2023-03-06T09:28:39.166Z,10.82
2023-03-06T09:31:15.660Z,11.10
2023-03-06T09:33:42.801Z,10.82
2023-03-06T09:36:21.925Z,10.48
2023-03-06T09:38:50.189Z,11.13
2023-03-06T09:41:31.739Z,10.75
2023-03-06T09:44:09.225Z,10.82
2023-03-06T09:46:57.782Z,11.15
2023-03-06T09:49:55.660Z,11.43
2023-03-06T09:52:36.497Z,11.52
2023-03-06T09:55:20.828Z,10.70
2023-03-06T09:58:07.598Z,11.50
2023-03-06T10:01:01.063Z,11.07
2023-03-06T10:03:47.058Z,10.43
2023-03-06T10:06:23.352Z,12.57
2023-03-06T10:09:03.719Z,11.23
2023-03-06T10:11:47.285Z,11.30
2023-03-06T10:14:30.439Z,10.32
2023-03-06T10:16:58.631Z,10.05
2023-03-06T10:19:37.797Z,11.45
2023-03-06T10:23:11.188Z,11.30
2023-03-06T10:25:52.418Z,10.13
2023-03-06T10:28:47.087Z,13.07
2023-03-06T10:31:24.188Z,12.55
2023-03-06T10:34:06.667Z,10.88
2023-03-06T10:36:33.724Z,11.75
2023-03-06T10:39:04.784Z,13.60
2023-03-06T10:41:38.358Z,13.20
2023-03-06T10:44:06.032Z,14.30
2023-03-06T10:46:35.554Z,14.07
2023-03-06T10:51:32.268Z,10.63
2023-03-06T10:54:02.198Z,12.70
2023-03-06T10:56:42.547Z,13.95
2023-03-06T10:59:17.246Z,13.15
2023-03-06T11:01:47.045Z,13.38
2023-03-06T11:04:25.071Z,12.80
2023-03-06T11:11:12.845Z,12.68
2023-03-06T11:13:42.719Z,13.50
2023-03-06T11:16:24.451Z,13.10
2023-03-06T11:19:04.204Z,14.15
2023-03-06T11:21:37.585Z,13.07
2023-03-06T11:24:17.327Z,11.88
2023-03-06T11:26:51.698Z,13.05
2023-03-06T11:29:26.618Z,11.93
2023-03-06T11:32:08.814Z,10.85
2023-03-06T11:34:59.090Z,11.77
2023-03-06T11:37:32.264Z,11.45
2023-03-06T11:40:12.438Z,11.15
2023-03-06T11:42:44.426Z,12.07
2023-03-06T11:45:17.338Z,11.98
2023-03-06T11:47:46.495Z,7.03
2023-03-06T11:50:29.090Z,10.38
2023-03-06T11:53:05.251Z,9.48
2023-03-06T11:55:42.613Z,11.18
2023-03-06T11:58:51.244Z,11.20
2023-03-06T12:01:36.903Z,11.80
2023-03-06T12:04:35.869Z,10.88
2023-03-06T12:07:21.257Z,10.95
2023-03-06T12:10:02.229Z,12.00
2023-03-06T12:12:31.945Z,11.77
2023-03-06T12:15:20.129Z,11.32
2023-03-06T12:17:56.001Z,12.45
2023-03-06T12:20:28.098Z,12.73
2023-03-06T12:23:16.662Z,10.82
2023-03-06T12:30:38.606Z,12.10
2023-03-06T12:33:26.108Z,8.98
2023-03-06T12:36:17.566Z,10.02
2023-03-06T12:39:10.485Z,11.70
2023-03-06T12:41:52.592Z,10.98
2023-03-06T12:45:01.489Z,11.77
2023-03-06T12:47:31.122Z,7.90
2023-03-06T12:52:32.676Z,10.45
2023-03-06T12:57:42.099Z,10.13
2023-03-06T13:00:35.121Z,9.48
2023-03-06T13:03:25.226Z,10.07
2023-03-06T13:06:06.945Z,9.50
2023-03-06T13:09:04.880Z,7.18
2023-03-06T13:11:58.652Z,10.60
2023-03-06T13:14:54.102Z,6.90
2023-03-06T13:17:21.458Z,10.70
2023-03-06T13:19:49.747Z,10.63
2023-03-06T13:22:44.449Z,11.07
2023-03-06T13:25:21.747Z,10.77
2023-03-06T13:27:54.974Z,11.13
2023-03-06T13:30:35.136Z,11.13
2023-03-06T13:33:15.484Z,10.73
2023-03-06T13:35:42.414Z,12.13
2023-03-06T13:38:39.657Z,11.63
2023-03-06T13:41:27.419Z,11.13
2023-03-06T13:43:56.812Z,10.23
2023-03-06T13:46:37.294Z,11.25
2023-03-06T13:49:04.538Z,10.50
2023-03-06T13:51:36.174Z,10.18
2023-03-06T13:54:21.178Z,10.20
2023-03-06T13:57:20.759Z,8.80
2023-03-06T14:00:46.019Z,9.25
2023-03-06T14:03:31.610Z,9.95
2023-03-06T14:05:59.196Z,10.63
2023-03-06T14:08:28.716Z,7.47
2023-03-06T14:11:19.578Z,10.98
2023-03-06T14:13:54.148Z,10.65
2023-03-06T14:16:24.264Z,11.13
2023-03-06T14:18:55.325Z,10.55
2023-03-06T14:21:48.806Z,10.35
2023-03-06T14:24:20.053Z,10.13
2023-03-06T14:26:50.966Z,10.77
2023-03-06T14:29:23.636Z,11.00
2023-03-06T14:31:53.359Z,11.27
2023-03-06T14:34:33.575Z,10.88
2023-03-06T14:37:22.284Z,11.18
2023-03-06T14:41:02.950Z,11.57
2023-03-06T14:43:31.858Z,11.43
2023-03-06T14:46:01.340Z,7.30
2023-03-06T14:48:44.293Z,11.60
2023-03-06T14:51:18.964Z,10.85
2023-03-06T14:53:48.690Z,11.90
2023-03-06T14:56:18.812Z,10.70
2023-03-06T14:59:46.072Z,10.52
2023-03-06T15:02:22.035Z,10.13
2023-03-06T15:05:00.745Z,11.13
2023-03-06T15:07:32.582Z,11.27
2023-03-06T15:10:01.167Z,10.43
2023-03-06T15:12:30.904Z,10.50
2023-03-06T15:15:26.021Z,10.20
2023-03-06T15:21:53.631Z,9.70
2023-03-06T15:24:36.672Z,10.23
2023-03-06T15:27:07.122Z,10.10
2023-03-06T15:29:38.214Z,10.77
2023-03-06T15:32:31.262Z,9.57
2023-03-06T15:35:37.918Z,10.30
2023-03-06T15:38:34.026Z,9.50
2023-03-06T15:41:03.156Z,8.20
2023-03-06T15:44:25.175Z,9.65
2023-03-06T15:46:59.279Z,8.70
2023-03-06T15:49:33.638Z,9.27
2023-03-06T15:52:32.247Z,9.10
2023-03-06T15:54:59.253Z,9.25
2023-03-06T15:57:30.910Z,9.77
2023-03-06T15:59:59.829Z,10.30
2023-03-06T16:02:26.988Z,9.60
2023-03-06T16:04:54.142Z,9.20
2023-03-06T16:07:21.381Z,9.73
2023-03-06T16:09:48.494Z,10.82
2023-03-06T16:12:17.829Z,9.27
2023-03-06T16:14:47.391Z,9.35
2023-03-06T16:19:42.014Z,8.60
2023-03-06T16:22:09.098Z,9.57
2023-03-06T16:24:37.349Z,10.32
2023-03-06T16:27:04.778Z,9.70
2023-03-06T16:29:32.408Z,9.25
2023-03-06T16:32:01.876Z,9.52
2023-03-06T16:36:56.469Z,9.27
2023-03-06T16:39:24.602Z,9.10
2023-03-06T16:41:51.946Z,9.50
2023-03-06T16:44:58.198Z,9.18
2023-03-06T16:47:25.307Z,9.55
2023-03-06T16:49:57.792Z,8.35
2023-03-06T16:52:24.976Z,8.75
2023-03-06T16:54:52.026Z,8.02
2023-03-06T16:57:19.134Z,8.93
2023-03-06T17:00:43.633Z,10.00
2023-03-06T17:03:10.703Z,8.82
2023-03-06T17:05:38.375Z,8.68
2023-03-06T17:08:05.498Z,9.63
2023-03-06T17:10:32.727Z,9.88
2023-03-06T17:12:59.779Z,9.25
2023-03-06T17:15:26.796Z,9.50
2023-03-06T17:17:53.858Z,9.32
2023-03-06T17:20:21.150Z,9.95
2023-03-06T17:22:48.182Z,9.23
2023-03-06T17:25:15.195Z,9.77
2023-03-06T17:27:42.261Z,10.38
2023-03-06T17:30:09.957Z,9.57
2023-03-06T17:32:38.167Z,10.18
2023-03-06T17:35:05.741Z,10.15
2023-03-06T17:37:32.849Z,9.02
2023-03-06T17:40:00.120Z,10.02
2023-03-06T17:46:22.225Z,10.48
2023-03-06T17:48:49.271Z,9.73
2023-03-06T17:51:16.231Z,10.13
2023-03-06T17:53:43.243Z,8.27
2023-03-06T17:56:13.095Z,9.68
2023-03-06T17:58:40.144Z,10.45
2023-03-06T18:01:19.009Z,9.23
2023-03-06T18:03:48.064Z,9.73
2023-03-06T18:06:16.354Z,9.68
2023-03-06T18:08:43.814Z,10.32
2023-03-06T18:11:11.328Z,11.10
2023-03-06T18:13:40.815Z,8.77
2023-03-06T18:16:08.812Z,10.10
2023-03-06T18:18:38.865Z,10.50
2023-03-06T18:21:11.352Z,9.73
2023-03-06T18:23:39.945Z,10.80
2023-03-06T18:26:16.136Z,9.90
2023-03-06T18:28:46.726Z,11.32
2023-03-06T18:31:18.144Z,11.45
2023-03-06T18:33:47.778Z,11.15
2023-03-06T18:38:51.303Z,10.52
2023-03-06T18:41:19.826Z,11.15
2023-03-06T18:44:17.706Z,10.82
2023-03-06T18:46:45.053Z,10.93
2023-03-06T18:49:13.484Z,10.63
2023-03-06T18:51:41.433Z,11.35
2023-03-06T18:54:09.732Z,10.82
2023-03-06T18:56:37.020Z,11.77
2023-03-06T18:59:06.909Z,11.45
2023-03-06T19:05:49.215Z,10.48
2023-03-06T19:08:17.454Z,11.45
2023-03-06T19:10:46.436Z,9.02
2023-03-06T19:13:13.991Z,11.98
2023-03-06T19:15:49.186Z,11.40
2023-03-06T19:18:18.038Z,10.02
2023-03-06T19:20:45.609Z,9.63
2023-03-06T19:24:23.011Z,10.85
2023-03-06T19:26:50.125Z,11.60
2023-03-06T19:29:17.181Z,12.52
2023-03-06T19:31:44.360Z,11.88
2023-03-06T19:34:11.436Z,11.57
2023-03-06T19:36:40.801Z,11.88
2023-03-06T19:41:35.588Z,10.00
2023-03-06T19:44:05.056Z,12.00
2023-03-06T19:46:32.640Z,11.38
2023-03-06T19:49:01.671Z,11.27
2023-03-06T19:51:28.840Z,12.50
2023-03-06T19:55:01.754Z,11.90
2023-03-06T19:57:28.721Z,12.35
2023-03-06T19:59:58.405Z,11.98
2023-03-06T20:02:27.277Z,11.15
2023-03-06T20:04:55.161Z,9.00
2023-03-06T20:07:22.378Z,11.52
2023-03-06T20:09:50.213Z,11.57
2023-03-06T20:12:17.318Z,10.35
2023-03-06T20:14:46.169Z,11.15
2023-03-06T20:17:13.251Z,11.77
2023-03-06T20:19:40.406Z,11.25
2023-03-06T20:22:07.482Z,11.48
2023-03-06T20:24:34.484Z,10.52
2023-03-06T20:27:01.898Z,10.43
2023-03-06T20:29:28.905Z,11.98
2023-03-06T20:31:57.780Z,10.75
2023-03-06T20:34:26.099Z,9.02
2023-03-06T20:36:53.548Z,11.30
2023-03-06T20:39:24.360Z,12.98
2023-03-06T20:41:51.460Z,12.82
2023-03-06T20:45:09.841Z,12.05
2023-03-06T20:47:36.856Z,11.60
2023-03-06T20:50:04.127Z,13.10
2023-03-06T20:52:31.161Z,12.10
2023-03-06T20:54:58.146Z,11.02
2023-03-06T20:57:25.096Z,12.57
2023-03-06T20:59:52.150Z,12.68
2023-03-06T21:02:19.111Z,12.70
2023-03-06T21:04:46.121Z,13.40
2023-03-06T21:07:13.203Z,12.65
2023-03-06T21:09:40.286Z,12.13
2023-03-06T21:12:07.389Z,11.10
2023-03-06T21:14:34.446Z,12.35
2023-03-06T21:17:01.443Z,13.30
2023-03-06T21:19:28.550Z,12.18
2023-03-06T21:21:55.559Z,11.98
2023-03-06T21:24:22.624Z,13.90
2023-03-06T21:26:51.285Z,12.18
2023-03-06T21:29:18.327Z,11.33
2023-03-06T21:31:45.447Z,11.95
2023-03-06T21:34:12.604Z,11.60
2023-03-06T21:36:39.691Z,11.93
2023-03-06T21:39:06.940Z,11.95
2023-03-06T21:41:34.604Z,12.00
2023-03-06T21:44:06.233Z,11.93
2023-03-06T21:46:34.013Z,11.73
2023-03-06T21:49:03.602Z,13.13
2023-03-06T21:53:57.597Z,10.98
2023-03-06T21:56:26.219Z,11.02
2023-03-06T21:58:53.437Z,8.53
2023-03-06T22:01:24.194Z,12.52
2023-03-06T22:03:51.649Z,13.05
2023-03-06T22:06:21.961Z,12.35
2023-03-06T22:08:49.052Z,11.70
2023-03-06T22:11:18.510Z,9.95
2023-03-06T22:13:48.069Z,11.15
2023-03-06T22:16:16.535Z,11.48
2023-03-06T22:18:48.916Z,12.10
2023-03-06T22:21:18.024Z,11.45
2023-03-06T22:23:52.290Z,11.77
2023-03-06T22:26:20.144Z,12.60
2023-03-06T22:28:47.330Z,10.93
2023-03-06T22:31:19.872Z,10.55
2023-03-06T22:33:47.029Z,11.27
2023-03-06T22:36:15.807Z,11.20
2023-03-06T22:38:45.279Z,11.93
2023-03-06T22:43:40.394Z,11.07
2023-03-06T22:46:10.456Z,10.60
2023-03-06T22:48:37.748Z,10.73
2023-03-06T22:51:14.255Z,10.50
2023-03-06T22:53:41.738Z,9.82
2023-03-06T22:56:13.419Z,10.88
2023-03-06T22:58:40.763Z,11.00
2023-03-06T23:01:18.254Z,11.10
2023-03-06T23:03:47.678Z,11.52
2023-03-06T23:06:14.629Z,11.63
2023-03-06T23:08:42.289Z,11.13
2023-03-06T23:11:12.278Z,7.38
2023-03-06T23:13:58.756Z,11.40
2023-03-06T23:16:44.818Z,11.05
2023-03-06T23:19:30.977Z,10.50
2023-03-06T23:22:16.830Z,10.38
2023-03-06T23:25:02.445Z,11.57
2023-03-06T23:27:29.577Z,10.73
2023-03-06T23:29:59.175Z,9.77
2023-03-06T23:32:26.241Z,9.77
2023-03-06T23:34:53.346Z,9.85
2023-03-06T23:37:20.599Z,8.40
2023-03-06T23:39:47.880Z,9.85
2023-03-06T23:42:15.290Z,10.02
2023-03-06T23:44:42.338Z,10.32
2023-03-06T23:47:09.384Z,10.32
2023-03-06T23:49:36.424Z,9.98
2023-03-06T23:52:04.445Z,10.63
2023-03-06T23:54:33.136Z,10.45
2023-03-06T23:57:00.142Z,9.53
2023-03-06T23:59:27.165Z,10.50
